EXS31JK EGBB-LGPZ
Flight info
| Callsign | EXS31JK |
|---|---|
| Flight time | 3h 7m |
| Altitude | 35000 |
| Route | COWLY Q70 BIG UL9 KONAN DCT KOK M150 KOMOB DCT EDISA DCT PICWI DCT UTABA DCT BEMKI DCT ELMEM DCT DIRAB DCT VESAL DCT VAKSU DCT RODON DCT LIMJA DCT PITAS/N0366F230 N732 KRK M127 MALED |
| Aircraft | A21N/M-SDE2E3FGHIJ1RWXY/LB1 |
Departure
| Time | 2026-05-06 10:28 |
|---|---|
| Airport | Birmingham Airport (EGBB) |
Arrival
| Time | 2026-05-06 13:36 |
|---|---|
| Airport | Aktion National Airport (LGPZ) |
| Time | Latitude | Longitude | Altitude | Speed | Heading |
|---|---|---|---|---|---|
| 2026-05-06 09:54 | 52.45036 | -1.73321 | 329 ft | 0 kts | 326° |
| 2026-05-06 10:17 | 52.45036 | -1.73320 | 329 ft | 1 kts | 326° |
| 2026-05-06 10:17 | 52.45020 | -1.73303 | 325 ft | 3 kts | 324° |
| 2026-05-06 10:18 | 52.45007 | -1.73275 | 328 ft | 4 kts | 270° |
| 2026-05-06 10:18 | 52.45014 | -1.73235 | 326 ft | 4 kts | 238° |
| 2026-05-06 10:18 | 52.45011 | -1.73243 | 326 ft | 4 kts | 236° |
| 2026-05-06 10:18 | 52.45004 | -1.73259 | 327 ft | 0 kts | 236° |
| 2026-05-06 10:21 | 52.45003 | -1.73262 | 327 ft | 1 kts | 236° |
| 2026-05-06 10:22 | 52.44995 | -1.73281 | 328 ft | 3 kts | 236° |
| 2026-05-06 10:22 | 52.44979 | -1.73320 | 327 ft | 5 kts | 236° |
| 2026-05-06 10:22 | 52.44955 | -1.73378 | 326 ft | 7 kts | 236° |
| 2026-05-06 10:22 | 52.44924 | -1.73454 | 328 ft | 9 kts | 236° |
| 2026-05-06 10:23 | 52.44894 | -1.73554 | 328 ft | 10 kts | 253° |
| 2026-05-06 10:23 | 52.44853 | -1.73659 | 326 ft | 12 kts | 220° |
| 2026-05-06 10:23 | 52.44772 | -1.73710 | 328 ft | 13 kts | 196° |
| 2026-05-06 10:23 | 52.44683 | -1.73701 | 327 ft | 14 kts | 144° |
| 2026-05-06 10:24 | 52.44601 | -1.73606 | 326 ft | 15 kts | 145° |
| 2026-05-06 10:24 | 52.44513 | -1.73507 | 329 ft | 16 kts | 146° |
| 2026-05-06 10:24 | 52.44423 | -1.73409 | 327 ft | 14 kts | 155° |
| 2026-05-06 10:24 | 52.44364 | -1.73446 | 326 ft | 0 kts | 239° |
| 2026-05-06 10:26 | 52.44363 | -1.73448 | 326 ft | 1 kts | 238° |
| 2026-05-06 10:26 | 52.44352 | -1.73476 | 329 ft | 4 kts | 236° |
| 2026-05-06 10:26 | 52.44334 | -1.73520 | 329 ft | 6 kts | 236° |
| 2026-05-06 10:26 | 52.44313 | -1.73576 | 328 ft | 5 kts | 254° |
| 2026-05-06 10:27 | 52.44334 | -1.73631 | 330 ft | 6 kts | 319° |
| 2026-05-06 10:27 | 52.44372 | -1.73677 | 329 ft | 10 kts | 325° |
| 2026-05-06 10:27 | 52.44577 | -1.73903 | 332 ft | 69 kts | 326° |
| 2026-05-06 10:27 | 52.45146 | -1.74534 | 333 ft | 127 kts | 326° |
| 2026-05-06 10:28 | 52.45997 | -1.75484 | 410 ft | 161 kts | 327° |
| 2026-05-06 10:28 | 52.46910 | -1.76510 | 973 ft | 162 kts | 327° |
| 2026-05-06 10:28 | 52.47861 | -1.77587 | 1617 ft | 168 kts | 330° |
| 2026-05-06 10:28 | 52.48865 | -1.78690 | 2062 ft | 184 kts | 330° |
| 2026-05-06 10:29 | 52.50005 | -1.79845 | 2511 ft | 201 kts | 341° |
| 2026-05-06 10:29 | 52.51450 | -1.80193 | 2794 ft | 222 kts | 9° |
| 2026-05-06 10:29 | 52.52907 | -1.79196 | 3344 ft | 232 kts | 40° |
| 2026-05-06 10:29 | 52.53853 | -1.77068 | 4134 ft | 237 kts | 68° |
| 2026-05-06 10:30 | 52.54015 | -1.74323 | 4767 ft | 254 kts | 95° |
| 2026-05-06 10:30 | 52.53631 | -1.71411 | 5371 ft | 265 kts | 101° |
| 2026-05-06 10:30 | 52.53166 | -1.68485 | 6093 ft | 271 kts | 105° |
| 2026-05-06 10:30 | 52.52216 | -1.65763 | 6794 ft | 281 kts | 129° |
| 2026-05-06 10:31 | 52.50818 | -1.63472 | 7526 ft | 285 kts | 135° |
| 2026-05-06 10:31 | 52.49360 | -1.61228 | 8264 ft | 290 kts | 135° |
| 2026-05-06 10:31 | 52.47884 | -1.58936 | 9027 ft | 293 kts | 135° |
| 2026-05-06 10:31 | 52.46396 | -1.56625 | 9785 ft | 297 kts | 139° |
| 2026-05-06 10:32 | 52.44683 | -1.54649 | 10366 ft | 307 kts | 149° |
| 2026-05-06 10:32 | 52.42793 | -1.52803 | 10696 ft | 325 kts | 150° |
| 2026-05-06 10:32 | 52.40794 | -1.50869 | 11028 ft | 342 kts | 149° |
| 2026-05-06 10:32 | 52.38730 | -1.48857 | 11642 ft | 348 kts | 149° |
| 2026-05-06 10:33 | 52.36622 | -1.46866 | 12331 ft | 351 kts | 155° |
| 2026-05-06 10:33 | 52.34301 | -1.45650 | 13044 ft | 351 kts | 171° |
| 2026-05-06 10:33 | 52.31916 | -1.44974 | 13791 ft | 353 kts | 173° |
| 2026-05-06 10:33 | 52.29445 | -1.44322 | 14411 ft | 356 kts | 173° |
| 2026-05-06 10:34 | 52.27028 | -1.43672 | 15023 ft | 359 kts | 172° |
| 2026-05-06 10:34 | 52.24558 | -1.42991 | 15674 ft | 361 kts | 172° |
| 2026-05-06 10:34 | 52.22069 | -1.42295 | 16288 ft | 364 kts | 172° |
| 2026-05-06 10:34 | 52.19567 | -1.41592 | 16901 ft | 367 kts | 172° |
| 2026-05-06 10:35 | 52.17042 | -1.40878 | 17505 ft | 369 kts | 172° |
| 2026-05-06 10:35 | 52.14494 | -1.40160 | 18090 ft | 373 kts | 172° |
| 2026-05-06 10:35 | 52.11929 | -1.39435 | 18633 ft | 376 kts | 172° |
| 2026-05-06 10:35 | 52.09343 | -1.38710 | 19147 ft | 378 kts | 172° |
| 2026-05-06 10:36 | 52.06741 | -1.37979 | 19662 ft | 381 kts | 172° |
| 2026-05-06 10:36 | 52.04126 | -1.37245 | 20174 ft | 383 kts | 172° |
| 2026-05-06 10:36 | 52.01498 | -1.36437 | 20658 ft | 386 kts | 166° |
| 2026-05-06 10:36 | 51.99038 | -1.34643 | 21114 ft | 392 kts | 147° |
| 2026-05-06 10:37 | 51.97019 | -1.31633 | 21573 ft | 398 kts | 130° |
| 2026-05-06 10:37 | 51.95360 | -1.28014 | 22056 ft | 400 kts | 127° |
| 2026-05-06 10:37 | 51.93734 | -1.24333 | 22511 ft | 403 kts | 127° |
| 2026-05-06 10:37 | 51.92078 | -1.20635 | 22973 ft | 406 kts | 128° |
| 2026-05-06 10:38 | 51.90396 | -1.16955 | 23421 ft | 408 kts | 128° |
| 2026-05-06 10:38 | 51.88703 | -1.13303 | 23821 ft | 411 kts | 128° |
| 2026-05-06 10:38 | 51.86985 | -1.09605 | 24199 ft | 413 kts | 128° |
| 2026-05-06 10:38 | 51.85239 | -1.05891 | 24586 ft | 415 kts | 128° |
| 2026-05-06 10:39 | 51.83482 | -1.02163 | 24945 ft | 417 kts | 128° |
| 2026-05-06 10:39 | 51.81717 | -0.98413 | 25318 ft | 420 kts | 128° |
| 2026-05-06 10:39 | 51.79942 | -0.94633 | 25674 ft | 422 kts | 128° |
| 2026-05-06 10:39 | 51.78162 | -0.90852 | 26015 ft | 424 kts | 128° |
| 2026-05-06 10:40 | 51.76369 | -0.87048 | 26350 ft | 426 kts | 128° |
| 2026-05-06 10:40 | 51.74575 | -0.83227 | 26730 ft | 428 kts | 128° |
| 2026-05-06 10:40 | 51.72774 | -0.79401 | 27054 ft | 429 kts | 128° |
| 2026-05-06 10:40 | 51.70963 | -0.75562 | 27412 ft | 430 kts | 128° |
| 2026-05-06 10:41 | 51.69148 | -0.71702 | 27686 ft | 433 kts | 128° |
| 2026-05-06 10:41 | 51.67344 | -0.67880 | 27965 ft | 435 kts | 128° |
| 2026-05-06 10:41 | 51.65501 | -0.63995 | 28228 ft | 438 kts | 128° |
| 2026-05-06 10:41 | 51.63651 | -0.60096 | 28519 ft | 440 kts | 128° |
| 2026-05-06 10:42 | 51.61786 | -0.56177 | 28830 ft | 441 kts | 128° |
| 2026-05-06 10:42 | 51.59888 | -0.52200 | 29115 ft | 443 kts | 128° |
| 2026-05-06 10:42 | 51.58012 | -0.48263 | 29430 ft | 444 kts | 128° |
| 2026-05-06 10:42 | 51.56131 | -0.44324 | 29708 ft | 446 kts | 128° |
| 2026-05-06 10:43 | 51.54238 | -0.40363 | 29965 ft | 448 kts | 128° |
| 2026-05-06 10:43 | 51.52334 | -0.36386 | 30176 ft | 450 kts | 128° |
| 2026-05-06 10:43 | 51.50443 | -0.32440 | 30361 ft | 452 kts | 128° |
| 2026-05-06 10:44 | 51.46581 | -0.24436 | 30834 ft | 455 kts | 128° |
| 2026-05-06 10:44 | 51.44645 | -0.20419 | 31070 ft | 456 kts | 128° |
| 2026-05-06 10:44 | 51.42707 | -0.16404 | 31291 ft | 457 kts | 128° |
| 2026-05-06 10:44 | 51.40748 | -0.12370 | 31479 ft | 459 kts | 128° |
| 2026-05-06 10:45 | 51.38792 | -0.08331 | 31666 ft | 460 kts | 128° |
| 2026-05-06 10:45 | 51.36809 | -0.04271 | 31822 ft | 462 kts | 129° |
| 2026-05-06 10:45 | 51.34853 | -0.00197 | 32135 ft | 461 kts | 126° |
| 2026-05-06 10:45 | 51.33249 | 0.04250 | 32412 ft | 461 kts | 114° |
| 2026-05-06 10:46 | 51.32271 | 0.09104 | 32734 ft | 458 kts | 102° |
| 2026-05-06 10:46 | 51.31851 | 0.12410 | 32928 ft | 457 kts | 100° |
| 2026-05-06 10:46 | 51.31088 | 0.19033 | 33266 ft | 456 kts | 100° |
| 2026-05-06 10:46 | 51.30506 | 0.24012 | 33554 ft | 455 kts | 100° |
| 2026-05-06 10:47 | 51.30115 | 0.27309 | 33697 ft | 454 kts | 99° |
| 2026-05-06 10:47 | 51.29521 | 0.32277 | 33863 ft | 455 kts | 100° |
| 2026-05-06 10:47 | 51.28919 | 0.37222 | 34072 ft | 454 kts | 100° |
| 2026-05-06 10:47 | 51.28305 | 0.42200 | 34245 ft | 454 kts | 100° |
| 2026-05-06 10:48 | 51.27693 | 0.47117 | 34366 ft | 454 kts | 100° |
| 2026-05-06 10:48 | 51.27083 | 0.52079 | 34539 ft | 453 kts | 101° |
| 2026-05-06 10:48 | 51.26471 | 0.57015 | 34670 ft | 453 kts | 101° |
| 2026-05-06 10:48 | 51.25853 | 0.61948 | 34784 ft | 453 kts | 102° |
| 2026-05-06 10:49 | 51.25228 | 0.66885 | 34922 ft | 453 kts | 102° |
| 2026-05-06 10:49 | 51.24600 | 0.71807 | 35042 ft | 453 kts | 102° |
| 2026-05-06 10:49 | 51.23972 | 0.76746 | 35068 ft | 455 kts | 102° |
| 2026-05-06 10:50 | 51.22698 | 0.86647 | 35018 ft | 455 kts | 102° |
| 2026-05-06 10:50 | 51.21425 | 0.96473 | 34970 ft | 453 kts | 102° |
| 2026-05-06 10:51 | 51.20152 | 1.06261 | 34962 ft | 450 kts | 102° |
| 2026-05-06 10:51 | 51.18867 | 1.16031 | 34959 ft | 451 kts | 103° |
| 2026-05-06 10:52 | 51.17586 | 1.25799 | 34959 ft | 450 kts | 102° |
| 2026-05-06 10:52 | 51.16323 | 1.35582 | 34950 ft | 451 kts | 99° |
| 2026-05-06 10:53 | 51.15782 | 1.45475 | 34956 ft | 452 kts | 95° |
| 2026-05-06 10:53 | 51.15313 | 1.55497 | 34949 ft | 450 kts | 95° |
| 2026-05-06 10:54 | 51.14825 | 1.65383 | 34953 ft | 450 kts | 95° |
| 2026-05-06 10:54 | 51.14332 | 1.75341 | 34947 ft | 451 kts | 95° |
| 2026-05-06 10:55 | 51.13832 | 1.85276 | 34940 ft | 451 kts | 95° |
| 2026-05-06 10:55 | 51.13313 | 1.95231 | 34932 ft | 451 kts | 95° |
| 2026-05-06 10:56 | 51.12794 | 2.05205 | 34936 ft | 450 kts | 95° |
| 2026-05-06 10:56 | 51.12254 | 2.15147 | 34931 ft | 452 kts | 95° |
| 2026-05-06 10:57 | 51.11684 | 2.25098 | 34932 ft | 453 kts | 96° |
| 2026-05-06 10:57 | 51.11122 | 2.35043 | 34921 ft | 451 kts | 95° |
| 2026-05-06 10:58 | 51.10587 | 2.44997 | 34923 ft | 450 kts | 95° |
| 2026-05-06 10:58 | 51.10034 | 2.54961 | 34914 ft | 452 kts | 96° |
| 2026-05-06 10:59 | 51.09190 | 2.64821 | 34907 ft | 452 kts | 107° |
| 2026-05-06 10:59 | 51.06624 | 2.73891 | 34907 ft | 449 kts | 119° |
| 2026-05-06 11:00 | 51.03651 | 2.82628 | 34924 ft | 449 kts | 119° |
| 2026-05-06 11:00 | 51.00737 | 2.91281 | 34917 ft | 445 kts | 118° |
| 2026-05-06 11:01 | 50.97827 | 2.99964 | 34912 ft | 444 kts | 118° |
| 2026-05-06 11:01 | 50.94904 | 3.08631 | 34896 ft | 445 kts | 119° |
| 2026-05-06 11:02 | 50.91972 | 3.17298 | 34886 ft | 445 kts | 119° |
| 2026-05-06 11:02 | 50.89076 | 3.25960 | 34875 ft | 445 kts | 119° |
| 2026-05-06 11:03 | 50.86153 | 3.34601 | 34874 ft | 444 kts | 118° |
| 2026-05-06 11:03 | 50.83215 | 3.43209 | 34868 ft | 444 kts | 119° |
| 2026-05-06 11:04 | 50.80286 | 3.51805 | 34873 ft | 443 kts | 119° |
| 2026-05-06 11:04 | 50.77349 | 3.60379 | 34879 ft | 443 kts | 119° |
| 2026-05-06 11:05 | 50.74418 | 3.68865 | 34879 ft | 444 kts | 119° |
| 2026-05-06 11:05 | 50.71444 | 3.77472 | 34870 ft | 445 kts | 120° |
| 2026-05-06 11:06 | 50.68501 | 3.86005 | 34871 ft | 443 kts | 120° |
| 2026-05-06 11:06 | 50.65526 | 3.94546 | 34869 ft | 445 kts | 120° |
| 2026-05-06 11:07 | 50.62550 | 4.03082 | 34868 ft | 444 kts | 120° |
| 2026-05-06 11:07 | 50.59540 | 4.11566 | 34864 ft | 444 kts | 120° |
| 2026-05-06 11:08 | 50.56531 | 4.20076 | 34868 ft | 445 kts | 120° |
| 2026-05-06 11:08 | 50.53533 | 4.28608 | 34872 ft | 446 kts | 120° |
| 2026-05-06 11:09 | 50.50521 | 4.37147 | 34875 ft | 445 kts | 120° |
| 2026-05-06 11:09 | 50.47506 | 4.45643 | 34875 ft | 445 kts | 121° |
| 2026-05-06 11:10 | 50.44480 | 4.54140 | 34875 ft | 447 kts | 120° |
| 2026-05-06 11:10 | 50.41465 | 4.62562 | 34866 ft | 447 kts | 121° |
| 2026-05-06 11:11 | 50.38440 | 4.71057 | 34847 ft | 447 kts | 121° |
| 2026-05-06 11:11 | 50.35403 | 4.79523 | 34847 ft | 446 kts | 121° |
| 2026-05-06 11:12 | 50.32354 | 4.87970 | 34845 ft | 445 kts | 121° |
| 2026-05-06 11:12 | 50.29287 | 4.96432 | 34841 ft | 448 kts | 121° |
| 2026-05-06 11:13 | 50.26213 | 5.04920 | 34854 ft | 448 kts | 121° |
| 2026-05-06 11:13 | 50.23124 | 5.13401 | 34849 ft | 451 kts | 121° |
| 2026-05-06 11:14 | 50.20010 | 5.21898 | 34849 ft | 450 kts | 121° |
| 2026-05-06 11:14 | 50.16911 | 5.30313 | 34840 ft | 449 kts | 121° |
| 2026-05-06 11:15 | 50.13802 | 5.38781 | 34839 ft | 450 kts | 121° |
| 2026-05-06 11:15 | 50.10659 | 5.47206 | 34841 ft | 450 kts | 122° |
| 2026-05-06 11:16 | 50.07512 | 5.55625 | 34825 ft | 448 kts | 122° |
| 2026-05-06 11:16 | 50.04384 | 5.64013 | 34819 ft | 447 kts | 122° |
| 2026-05-06 11:17 | 50.01258 | 5.72365 | 34818 ft | 446 kts | 123° |
| 2026-05-06 11:17 | 49.98130 | 5.80627 | 34809 ft | 446 kts | 123° |
| 2026-05-06 11:18 | 49.94981 | 5.88932 | 34805 ft | 446 kts | 123° |
| 2026-05-06 11:18 | 49.91824 | 5.97226 | 34796 ft | 445 kts | 123° |
| 2026-05-06 11:19 | 49.88673 | 6.05497 | 34790 ft | 446 kts | 123° |
| 2026-05-06 11:19 | 49.85519 | 6.13769 | 34787 ft | 446 kts | 123° |
| 2026-05-06 11:20 | 49.82374 | 6.22042 | 34792 ft | 446 kts | 123° |
| 2026-05-06 11:20 | 49.79200 | 6.30296 | 34777 ft | 445 kts | 123° |
| 2026-05-06 11:21 | 49.76024 | 6.38525 | 34765 ft | 448 kts | 123° |
| 2026-05-06 11:21 | 49.72832 | 6.46796 | 34775 ft | 447 kts | 123° |
| 2026-05-06 11:22 | 49.69662 | 6.54998 | 34766 ft | 446 kts | 124° |
| 2026-05-06 11:22 | 49.66450 | 6.63236 | 34755 ft | 446 kts | 124° |
| 2026-05-06 11:23 | 49.63234 | 6.71449 | 34747 ft | 447 kts | 124° |
| 2026-05-06 11:23 | 49.60014 | 6.79655 | 34738 ft | 447 kts | 124° |
| 2026-05-06 11:24 | 49.56793 | 6.87866 | 34753 ft | 448 kts | 124° |
| 2026-05-06 11:24 | 49.53576 | 6.96056 | 34752 ft | 447 kts | 124° |
| 2026-05-06 11:25 | 49.50360 | 7.04181 | 34762 ft | 442 kts | 125° |
| 2026-05-06 11:25 | 49.47143 | 7.12260 | 34766 ft | 443 kts | 125° |
| 2026-05-06 11:26 | 49.43953 | 7.20289 | 34754 ft | 443 kts | 125° |
| 2026-05-06 11:26 | 49.40709 | 7.28434 | 34762 ft | 444 kts | 125° |
| 2026-05-06 11:27 | 49.37494 | 7.36458 | 34768 ft | 444 kts | 125° |
| 2026-05-06 11:27 | 49.34256 | 7.44509 | 34763 ft | 444 kts | 125° |
| 2026-05-06 11:28 | 49.31018 | 7.52581 | 34770 ft | 444 kts | 125° |
| 2026-05-06 11:28 | 49.27764 | 7.60617 | 34761 ft | 446 kts | 126° |
| 2026-05-06 11:29 | 49.24452 | 7.68704 | 34777 ft | 448 kts | 126° |
| 2026-05-06 11:29 | 49.21160 | 7.76784 | 34767 ft | 448 kts | 126° |
| 2026-05-06 11:30 | 49.17871 | 7.84884 | 34766 ft | 449 kts | 126° |
| 2026-05-06 11:30 | 49.14576 | 7.92983 | 34768 ft | 448 kts | 126° |
| 2026-05-06 11:31 | 49.11261 | 8.01047 | 34767 ft | 450 kts | 127° |
| 2026-05-06 11:31 | 49.08492 | 8.07788 | 34775 ft | 450 kts | 126° |
| 2026-05-06 11:32 | 49.04616 | 8.17188 | 34780 ft | 450 kts | 127° |
| 2026-05-06 11:32 | 49.01815 | 8.23959 | 34783 ft | 451 kts | 127° |
| 2026-05-06 11:33 | 48.98275 | 8.31730 | 34782 ft | 444 kts | 138° |
| 2026-05-06 11:33 | 48.93840 | 8.38201 | 34790 ft | 444 kts | 139° |
| 2026-05-06 11:34 | 48.89567 | 8.44979 | 34789 ft | 445 kts | 138° |
| 2026-05-06 11:34 | 48.85321 | 8.51794 | 34787 ft | 444 kts | 138° |
| 2026-05-06 11:35 | 48.81078 | 8.58611 | 34786 ft | 443 kts | 138° |
| 2026-05-06 11:35 | 48.76844 | 8.65399 | 34788 ft | 444 kts | 138° |
| 2026-05-06 11:36 | 48.72591 | 8.72176 | 34790 ft | 442 kts | 139° |
| 2026-05-06 11:36 | 48.68328 | 8.78923 | 34780 ft | 443 kts | 140° |
| 2026-05-06 11:37 | 48.64092 | 8.85671 | 34786 ft | 442 kts | 139° |
| 2026-05-06 11:37 | 48.59844 | 8.92390 | 34784 ft | 442 kts | 139° |
| 2026-05-06 11:38 | 48.55618 | 8.99072 | 34788 ft | 441 kts | 140° |
| 2026-05-06 11:38 | 48.51369 | 9.05775 | 34787 ft | 442 kts | 140° |
| 2026-05-06 11:39 | 48.47109 | 9.12462 | 34771 ft | 444 kts | 140° |
| 2026-05-06 11:39 | 48.42854 | 9.19127 | 34784 ft | 441 kts | 140° |
| 2026-05-06 11:40 | 48.38594 | 9.25767 | 34788 ft | 440 kts | 140° |
| 2026-05-06 11:40 | 48.34345 | 9.32388 | 34788 ft | 440 kts | 140° |
| 2026-05-06 11:41 | 48.30089 | 9.39008 | 34790 ft | 440 kts | 140° |
| 2026-05-06 11:41 | 48.25826 | 9.45579 | 34784 ft | 438 kts | 142° |
| 2026-05-06 11:42 | 48.21212 | 9.51440 | 34773 ft | 433 kts | 147° |
| 2026-05-06 11:42 | 48.16572 | 9.57134 | 34775 ft | 433 kts | 147° |
| 2026-05-06 11:43 | 48.11907 | 9.62867 | 34768 ft | 433 kts | 147° |
| 2026-05-06 11:43 | 48.07240 | 9.68580 | 34774 ft | 434 kts | 147° |
| 2026-05-06 11:44 | 48.00221 | 9.77151 | 34767 ft | 434 kts | 147° |
| 2026-05-06 11:44 | 47.95570 | 9.82801 | 34748 ft | 434 kts | 147° |
| 2026-05-06 11:45 | 47.90878 | 9.88467 | 34776 ft | 433 kts | 147° |
| 2026-05-06 11:45 | 47.86194 | 9.94135 | 34784 ft | 433 kts | 147° |
| 2026-05-06 11:46 | 47.81512 | 9.99796 | 34782 ft | 434 kts | 147° |
| 2026-05-06 11:46 | 47.76829 | 10.05445 | 34781 ft | 434 kts | 148° |
| 2026-05-06 11:47 | 47.72134 | 10.11088 | 34782 ft | 433 kts | 148° |
| 2026-05-06 11:47 | 47.67445 | 10.16721 | 34778 ft | 432 kts | 148° |
| 2026-05-06 11:48 | 47.62797 | 10.22337 | 34790 ft | 432 kts | 148° |
| 2026-05-06 11:48 | 47.58121 | 10.27928 | 34771 ft | 432 kts | 148° |
| 2026-05-06 11:49 | 47.53288 | 10.33136 | 34768 ft | 426 kts | 154° |
| 2026-05-06 11:49 | 47.48340 | 10.37924 | 34758 ft | 425 kts | 154° |
| 2026-05-06 11:50 | 47.43388 | 10.42705 | 34750 ft | 427 kts | 154° |
| 2026-05-06 11:50 | 47.38427 | 10.47517 | 34747 ft | 428 kts | 154° |
| 2026-05-06 11:51 | 47.33473 | 10.52307 | 34754 ft | 429 kts | 154° |
| 2026-05-06 11:51 | 47.28501 | 10.57134 | 34758 ft | 428 kts | 153° |
| 2026-05-06 11:52 | 47.23630 | 10.62217 | 34762 ft | 428 kts | 152° |
| 2026-05-06 11:52 | 47.18794 | 10.67314 | 34752 ft | 427 kts | 152° |
| 2026-05-06 11:53 | 47.13938 | 10.72391 | 34755 ft | 428 kts | 152° |
| 2026-05-06 11:53 | 47.09081 | 10.77474 | 34747 ft | 431 kts | 153° |
| 2026-05-06 11:54 | 47.04199 | 10.82547 | 34779 ft | 425 kts | 153° |
| 2026-05-06 11:54 | 46.99356 | 10.87566 | 34799 ft | 426 kts | 153° |
| 2026-05-06 11:55 | 46.94521 | 10.92585 | 34825 ft | 427 kts | 153° |
| 2026-05-06 11:55 | 46.89696 | 10.97581 | 34831 ft | 427 kts | 153° |
| 2026-05-06 11:56 | 46.84840 | 11.02608 | 34852 ft | 427 kts | 153° |
| 2026-05-06 11:56 | 46.80153 | 11.08034 | 34839 ft | 440 kts | 143° |
| 2026-05-06 11:57 | 46.75944 | 11.14597 | 34894 ft | 443 kts | 141° |
| 2026-05-06 11:57 | 46.71755 | 11.21179 | 34903 ft | 442 kts | 142° |
| 2026-05-06 11:58 | 46.67540 | 11.27719 | 34894 ft | 442 kts | 142° |
| 2026-05-06 11:58 | 46.63331 | 11.34241 | 34889 ft | 441 kts | 142° |
| 2026-05-06 11:59 | 46.59112 | 11.40723 | 34860 ft | 442 kts | 142° |
| 2026-05-06 11:59 | 46.54884 | 11.47265 | 34875 ft | 441 kts | 142° |
| 2026-05-06 12:00 | 46.50677 | 11.53728 | 34880 ft | 441 kts | 142° |
| 2026-05-06 12:00 | 46.46456 | 11.60189 | 34876 ft | 441 kts | 142° |
| 2026-05-06 12:01 | 46.42275 | 11.66605 | 34872 ft | 442 kts | 142° |
| 2026-05-06 12:01 | 46.38097 | 11.73178 | 34878 ft | 445 kts | 139° |
| 2026-05-06 12:02 | 46.34156 | 11.80108 | 34887 ft | 443 kts | 138° |
| 2026-05-06 12:02 | 46.30236 | 11.86994 | 34885 ft | 443 kts | 138° |
| 2026-05-06 12:03 | 46.26318 | 11.93839 | 34893 ft | 442 kts | 138° |
| 2026-05-06 12:03 | 46.22390 | 12.00700 | 34893 ft | 445 kts | 138° |
| 2026-05-06 12:04 | 46.18437 | 12.07569 | 34888 ft | 446 kts | 138° |
| 2026-05-06 12:04 | 46.14449 | 12.14458 | 34896 ft | 448 kts | 138° |
| 2026-05-06 12:05 | 46.10476 | 12.21340 | 34913 ft | 446 kts | 138° |
| 2026-05-06 12:05 | 46.06515 | 12.28222 | 34922 ft | 446 kts | 138° |
| 2026-05-06 12:06 | 46.02575 | 12.35037 | 34933 ft | 445 kts | 138° |
| 2026-05-06 12:06 | 45.98584 | 12.41906 | 34920 ft | 447 kts | 138° |
| 2026-05-06 12:07 | 45.94588 | 12.48768 | 34930 ft | 448 kts | 138° |
| 2026-05-06 12:07 | 45.90577 | 12.55628 | 34936 ft | 448 kts | 138° |
| 2026-05-06 12:08 | 45.86568 | 12.62465 | 34922 ft | 448 kts | 138° |
| 2026-05-06 12:08 | 45.82561 | 12.69281 | 34900 ft | 448 kts | 138° |
| 2026-05-06 12:09 | 45.78526 | 12.76139 | 34922 ft | 450 kts | 138° |
| 2026-05-06 12:09 | 45.74524 | 12.82924 | 34916 ft | 449 kts | 138° |
| 2026-05-06 12:10 | 45.70478 | 12.89751 | 34924 ft | 449 kts | 138° |
| 2026-05-06 12:10 | 45.66435 | 12.96574 | 34922 ft | 448 kts | 138° |
| 2026-05-06 12:11 | 45.62392 | 13.03377 | 34902 ft | 450 kts | 138° |
| 2026-05-06 12:11 | 45.58348 | 13.10179 | 34922 ft | 448 kts | 137° |
| 2026-05-06 12:12 | 45.54333 | 13.16900 | 34912 ft | 447 kts | 138° |
| 2026-05-06 12:12 | 45.50293 | 13.23645 | 34937 ft | 447 kts | 138° |
| 2026-05-06 12:13 | 45.46249 | 13.30376 | 34923 ft | 446 kts | 138° |
| 2026-05-06 12:13 | 45.42208 | 13.37093 | 34928 ft | 445 kts | 138° |
| 2026-05-06 12:14 | 45.38171 | 13.43792 | 34932 ft | 446 kts | 138° |
| 2026-05-06 12:14 | 45.34137 | 13.50467 | 34935 ft | 444 kts | 138° |
| 2026-05-06 12:15 | 45.30123 | 13.57081 | 34940 ft | 444 kts | 138° |
| 2026-05-06 12:15 | 45.26090 | 13.63727 | 34920 ft | 444 kts | 138° |
| 2026-05-06 12:16 | 45.22046 | 13.70368 | 34944 ft | 444 kts | 138° |
| 2026-05-06 12:16 | 45.18674 | 13.75872 | 34963 ft | 444 kts | 138° |
| 2026-05-06 12:17 | 45.14620 | 13.82497 | 34969 ft | 445 kts | 138° |
| 2026-05-06 12:17 | 45.10580 | 13.89091 | 34962 ft | 442 kts | 138° |
| 2026-05-06 12:18 | 45.06547 | 13.95662 | 34960 ft | 444 kts | 138° |
| 2026-05-06 12:18 | 45.02491 | 14.02246 | 34971 ft | 443 kts | 138° |
| 2026-05-06 12:19 | 44.98429 | 14.08819 | 34977 ft | 443 kts | 138° |
| 2026-05-06 12:19 | 44.94406 | 14.15328 | 34979 ft | 443 kts | 138° |
| 2026-05-06 12:20 | 44.90347 | 14.21869 | 34985 ft | 443 kts | 138° |
| 2026-05-06 12:20 | 44.86274 | 14.28415 | 34975 ft | 444 kts | 137° |
| 2026-05-06 12:21 | 44.82194 | 14.34956 | 34977 ft | 444 kts | 138° |
| 2026-05-06 12:21 | 44.78119 | 14.41477 | 34970 ft | 444 kts | 138° |
| 2026-05-06 12:22 | 44.74036 | 14.47998 | 34974 ft | 444 kts | 138° |
| 2026-05-06 12:22 | 44.69971 | 14.54474 | 34957 ft | 444 kts | 137° |
| 2026-05-06 12:23 | 44.65871 | 14.60999 | 34991 ft | 445 kts | 137° |
| 2026-05-06 12:23 | 44.61763 | 14.67518 | 34977 ft | 445 kts | 137° |
| 2026-05-06 12:24 | 44.57661 | 14.74013 | 34971 ft | 443 kts | 137° |
| 2026-05-06 12:24 | 44.53558 | 14.80482 | 34984 ft | 443 kts | 137° |
| 2026-05-06 12:25 | 44.49464 | 14.86929 | 34985 ft | 443 kts | 137° |
| 2026-05-06 12:25 | 44.45366 | 14.93376 | 34981 ft | 443 kts | 137° |
| 2026-05-06 12:26 | 44.41294 | 14.99763 | 34988 ft | 443 kts | 138° |
| 2026-05-06 12:26 | 44.37173 | 15.06200 | 34981 ft | 443 kts | 138° |
| 2026-05-06 12:27 | 44.33055 | 15.12620 | 34964 ft | 445 kts | 137° |
| 2026-05-06 12:27 | 44.28920 | 15.19072 | 34984 ft | 445 kts | 137° |
| 2026-05-06 12:28 | 44.24806 | 15.25475 | 34992 ft | 445 kts | 137° |
| 2026-05-06 12:28 | 44.20665 | 15.31893 | 34993 ft | 445 kts | 137° |
| 2026-05-06 12:29 | 44.16513 | 15.38308 | 34998 ft | 446 kts | 137° |
| 2026-05-06 12:29 | 44.12353 | 15.44714 | 34982 ft | 446 kts | 137° |
| 2026-05-06 12:30 | 44.08187 | 15.51129 | 34994 ft | 446 kts | 137° |
| 2026-05-06 12:30 | 44.04028 | 15.57533 | 34994 ft | 447 kts | 137° |
| 2026-05-06 12:31 | 43.99851 | 15.63939 | 34985 ft | 447 kts | 137° |
| 2026-05-06 12:31 | 43.95696 | 15.70284 | 34981 ft | 448 kts | 137° |
| 2026-05-06 12:32 | 43.91511 | 15.76706 | 34990 ft | 448 kts | 137° |
| 2026-05-06 12:32 | 43.87325 | 15.83094 | 34986 ft | 448 kts | 137° |
| 2026-05-06 12:33 | 43.83131 | 15.89464 | 34985 ft | 446 kts | 137° |
| 2026-05-06 12:33 | 43.78952 | 15.95809 | 34988 ft | 446 kts | 137° |
| 2026-05-06 12:34 | 43.74753 | 16.02155 | 34984 ft | 447 kts | 137° |
| 2026-05-06 12:34 | 43.70555 | 16.08480 | 34995 ft | 447 kts | 137° |
| 2026-05-06 12:35 | 43.66347 | 16.14816 | 35000 ft | 446 kts | 137° |
| 2026-05-06 12:35 | 43.62147 | 16.21129 | 35011 ft | 446 kts | 137° |
| 2026-05-06 12:36 | 43.57973 | 16.27392 | 35022 ft | 446 kts | 137° |
| 2026-05-06 12:36 | 43.53755 | 16.33701 | 35025 ft | 446 kts | 137° |
| 2026-05-06 12:37 | 43.49530 | 16.39968 | 35021 ft | 447 kts | 137° |
| 2026-05-06 12:37 | 43.45296 | 16.46260 | 35022 ft | 447 kts | 137° |
| 2026-05-06 12:38 | 43.41066 | 16.52546 | 35042 ft | 447 kts | 137° |
| 2026-05-06 12:38 | 43.36832 | 16.58822 | 35048 ft | 448 kts | 137° |
| 2026-05-06 12:39 | 43.32587 | 16.65085 | 35053 ft | 447 kts | 137° |
| 2026-05-06 12:39 | 43.28351 | 16.71346 | 35045 ft | 448 kts | 136° |
| 2026-05-06 12:40 | 43.24110 | 16.77612 | 35052 ft | 448 kts | 136° |
| 2026-05-06 12:40 | 43.19863 | 16.83879 | 35048 ft | 448 kts | 136° |
| 2026-05-06 12:41 | 43.15597 | 16.90133 | 35023 ft | 448 kts | 137° |
| 2026-05-06 12:41 | 43.11321 | 16.96398 | 35041 ft | 450 kts | 137° |
| 2026-05-06 12:42 | 43.07066 | 17.02616 | 35033 ft | 450 kts | 137° |
| 2026-05-06 12:42 | 43.02776 | 17.08863 | 35042 ft | 451 kts | 136° |
| 2026-05-06 12:43 | 42.98478 | 17.15112 | 35045 ft | 451 kts | 136° |
| 2026-05-06 12:43 | 42.94170 | 17.21357 | 35047 ft | 451 kts | 136° |
| 2026-05-06 12:44 | 42.89871 | 17.27582 | 35039 ft | 452 kts | 137° |
| 2026-05-06 12:44 | 42.85550 | 17.33812 | 35052 ft | 452 kts | 137° |
| 2026-05-06 12:45 | 42.81229 | 17.40023 | 35042 ft | 452 kts | 137° |
| 2026-05-06 12:46 | 42.74742 | 17.49301 | 35053 ft | 452 kts | 137° |
| 2026-05-06 12:46 | 42.70412 | 17.55528 | 35052 ft | 453 kts | 137° |
| 2026-05-06 12:47 | 42.66086 | 17.61747 | 35061 ft | 453 kts | 137° |
| 2026-05-06 12:47 | 42.61731 | 17.67967 | 35058 ft | 454 kts | 137° |
| 2026-05-06 12:48 | 42.57367 | 17.74170 | 35058 ft | 454 kts | 137° |
| 2026-05-06 12:48 | 42.53030 | 17.80333 | 35067 ft | 454 kts | 137° |
| 2026-05-06 12:49 | 42.48650 | 17.86536 | 35074 ft | 454 kts | 137° |
| 2026-05-06 12:49 | 42.44277 | 17.92728 | 35083 ft | 454 kts | 137° |
| 2026-05-06 12:50 | 42.39895 | 17.98918 | 35089 ft | 454 kts | 137° |
| 2026-05-06 12:50 | 42.35553 | 18.05037 | 35093 ft | 454 kts | 137° |
| 2026-05-06 12:51 | 42.31171 | 18.11192 | 35095 ft | 454 kts | 137° |
| 2026-05-06 12:51 | 42.26784 | 18.17344 | 35087 ft | 454 kts | 137° |
| 2026-05-06 12:52 | 42.22401 | 18.23476 | 35082 ft | 454 kts | 137° |
| 2026-05-06 12:52 | 42.18014 | 18.29610 | 35075 ft | 454 kts | 137° |
| 2026-05-06 12:53 | 42.13617 | 18.35731 | 35061 ft | 454 kts | 138° |
| 2026-05-06 12:53 | 42.09258 | 18.41798 | 35078 ft | 454 kts | 138° |
| 2026-05-06 12:54 | 42.04846 | 18.47901 | 35079 ft | 455 kts | 138° |
| 2026-05-06 12:54 | 42.00321 | 18.53825 | 35077 ft | 451 kts | 145° |
| 2026-05-06 12:55 | 41.95358 | 18.59003 | 35088 ft | 452 kts | 146° |
| 2026-05-06 12:55 | 41.90384 | 18.64148 | 35085 ft | 451 kts | 146° |
| 2026-05-06 12:56 | 41.85410 | 18.69301 | 35077 ft | 451 kts | 146° |
| 2026-05-06 12:56 | 41.80436 | 18.74454 | 35085 ft | 452 kts | 146° |
| 2026-05-06 12:57 | 41.75452 | 18.79600 | 35083 ft | 453 kts | 146° |
| 2026-05-06 12:57 | 41.70490 | 18.84718 | 35092 ft | 453 kts | 146° |
| 2026-05-06 12:58 | 41.65484 | 18.89867 | 35086 ft | 453 kts | 146° |
| 2026-05-06 12:58 | 41.60481 | 18.94999 | 35081 ft | 452 kts | 146° |
| 2026-05-06 12:59 | 41.55493 | 19.00113 | 35092 ft | 452 kts | 146° |
| 2026-05-06 12:59 | 41.50495 | 19.05224 | 35092 ft | 452 kts | 146° |
| 2026-05-06 13:00 | 41.45438 | 19.10094 | 35089 ft | 448 kts | 154° |
| 2026-05-06 13:00 | 41.39672 | 19.13145 | 35092 ft | 445 kts | 165° |
| 2026-05-06 13:01 | 41.33811 | 19.15883 | 35083 ft | 447 kts | 163° |
| 2026-05-06 13:01 | 41.27964 | 19.18717 | 35090 ft | 446 kts | 163° |
| 2026-05-06 13:02 | 41.22134 | 19.21559 | 35095 ft | 446 kts | 163° |
| 2026-05-06 13:02 | 41.16344 | 19.24374 | 35094 ft | 446 kts | 163° |
| 2026-05-06 13:03 | 41.10512 | 19.27199 | 35096 ft | 446 kts | 163° |
| 2026-05-06 13:03 | 41.04671 | 19.30022 | 35093 ft | 446 kts | 163° |
| 2026-05-06 13:04 | 40.98831 | 19.32846 | 35087 ft | 446 kts | 163° |
| 2026-05-06 13:04 | 40.92999 | 19.35655 | 35085 ft | 446 kts | 163° |
| 2026-05-06 13:05 | 40.88156 | 19.37990 | 35093 ft | 446 kts | 163° |
| 2026-05-06 13:05 | 40.82324 | 19.40790 | 35085 ft | 446 kts | 163° |
| 2026-05-06 13:06 | 40.76500 | 19.43586 | 35081 ft | 446 kts | 163° |
| 2026-05-06 13:06 | 40.70677 | 19.46378 | 35072 ft | 446 kts | 164° |
| 2026-05-06 13:07 | 40.64819 | 19.49176 | 35087 ft | 447 kts | 164° |
| 2026-05-06 13:07 | 40.58966 | 19.51970 | 35085 ft | 448 kts | 164° |
| 2026-05-06 13:08 | 40.53146 | 19.54741 | 35080 ft | 447 kts | 164° |
| 2026-05-06 13:08 | 40.47328 | 19.57494 | 35073 ft | 440 kts | 164° |
| 2026-05-06 13:08 | 40.44470 | 19.58844 | 34873 ft | 433 kts | 164° |
| 2026-05-06 13:09 | 40.41645 | 19.60182 | 34449 ft | 429 kts | 164° |
| 2026-05-06 13:09 | 40.38841 | 19.61507 | 33927 ft | 426 kts | 164° |
| 2026-05-06 13:09 | 40.36059 | 19.62824 | 33371 ft | 424 kts | 164° |
| 2026-05-06 13:09 | 40.33289 | 19.64135 | 32870 ft | 421 kts | 164° |
| 2026-05-06 13:10 | 40.30542 | 19.65435 | 32394 ft | 418 kts | 164° |
| 2026-05-06 13:10 | 40.27808 | 19.66727 | 31883 ft | 416 kts | 164° |
| 2026-05-06 13:10 | 40.25091 | 19.68007 | 31426 ft | 414 kts | 165° |
| 2026-05-06 13:10 | 40.22391 | 19.69276 | 30972 ft | 412 kts | 165° |
| 2026-05-06 13:11 | 40.19698 | 19.70540 | 30518 ft | 409 kts | 165° |
| 2026-05-06 13:11 | 40.17030 | 19.71792 | 30067 ft | 407 kts | 165° |
| 2026-05-06 13:11 | 40.14368 | 19.73040 | 29555 ft | 405 kts | 165° |
| 2026-05-06 13:11 | 40.11722 | 19.74282 | 29046 ft | 403 kts | 164° |
| 2026-05-06 13:12 | 40.09120 | 19.75504 | 28578 ft | 400 kts | 164° |
| 2026-05-06 13:12 | 40.06507 | 19.76727 | 28126 ft | 398 kts | 164° |
| 2026-05-06 13:12 | 40.03908 | 19.77941 | 27688 ft | 395 kts | 164° |
| 2026-05-06 13:12 | 40.01328 | 19.79146 | 27228 ft | 392 kts | 164° |
| 2026-05-06 13:13 | 39.98770 | 19.80341 | 26792 ft | 390 kts | 164° |
| 2026-05-06 13:13 | 39.96218 | 19.81532 | 26350 ft | 388 kts | 163° |
| 2026-05-06 13:13 | 39.93676 | 19.82718 | 25914 ft | 386 kts | 163° |
| 2026-05-06 13:13 | 39.91152 | 19.83895 | 25483 ft | 385 kts | 163° |
| 2026-05-06 13:14 | 39.88648 | 19.85109 | 25074 ft | 383 kts | 162° |
| 2026-05-06 13:14 | 39.86164 | 19.86355 | 24638 ft | 382 kts | 162° |
| 2026-05-06 13:14 | 39.83688 | 19.87601 | 24192 ft | 382 kts | 161° |
| 2026-05-06 13:14 | 39.81235 | 19.88837 | 23767 ft | 381 kts | 161° |
| 2026-05-06 13:15 | 39.78763 | 19.90083 | 23288 ft | 380 kts | 161° |
| 2026-05-06 13:15 | 39.76310 | 19.91318 | 22829 ft | 378 kts | 161° |
| 2026-05-06 13:15 | 39.73860 | 19.92547 | 22377 ft | 375 kts | 161° |
| 2026-05-06 13:15 | 39.71428 | 19.93768 | 21934 ft | 373 kts | 161° |
| 2026-05-06 13:16 | 39.69010 | 19.94981 | 21506 ft | 371 kts | 161° |
| 2026-05-06 13:16 | 39.66607 | 19.96184 | 21077 ft | 369 kts | 161° |
| 2026-05-06 13:16 | 39.64214 | 19.97381 | 20640 ft | 368 kts | 161° |
| 2026-05-06 13:16 | 39.61828 | 19.98573 | 20229 ft | 366 kts | 161° |
| 2026-05-06 13:17 | 39.59453 | 19.99761 | 19837 ft | 364 kts | 161° |
| 2026-05-06 13:17 | 39.57097 | 20.00938 | 19442 ft | 363 kts | 161° |
| 2026-05-06 13:17 | 39.54735 | 20.02115 | 19053 ft | 362 kts | 161° |
| 2026-05-06 13:17 | 39.52414 | 20.03270 | 18667 ft | 362 kts | 161° |
| 2026-05-06 13:18 | 39.50033 | 20.04456 | 18264 ft | 363 kts | 161° |
| 2026-05-06 13:18 | 39.47704 | 20.05617 | 17844 ft | 362 kts | 161° |
| 2026-05-06 13:18 | 39.45365 | 20.06792 | 17451 ft | 357 kts | 159° |
| 2026-05-06 13:18 | 39.43224 | 20.08393 | 17063 ft | 355 kts | 144° |
| 2026-05-06 13:19 | 39.41301 | 20.10371 | 16686 ft | 350 kts | 142° |
| 2026-05-06 13:19 | 39.39427 | 20.12351 | 16325 ft | 345 kts | 142° |
| 2026-05-06 13:19 | 39.37582 | 20.14290 | 15986 ft | 340 kts | 142° |
| 2026-05-06 13:19 | 39.35755 | 20.16196 | 15660 ft | 334 kts | 143° |
| 2026-05-06 13:20 | 39.33949 | 20.18071 | 15339 ft | 332 kts | 143° |
| 2026-05-06 13:20 | 39.32151 | 20.19933 | 15014 ft | 331 kts | 143° |
| 2026-05-06 13:20 | 39.30349 | 20.21796 | 14669 ft | 332 kts | 143° |
| 2026-05-06 13:20 | 39.28542 | 20.23664 | 14328 ft | 332 kts | 143° |
| 2026-05-06 13:21 | 39.26740 | 20.25519 | 14007 ft | 332 kts | 143° |
| 2026-05-06 13:21 | 39.24934 | 20.27378 | 13653 ft | 331 kts | 143° |
| 2026-05-06 13:21 | 39.23158 | 20.29210 | 13306 ft | 331 kts | 143° |
| 2026-05-06 13:21 | 39.21470 | 20.31231 | 12963 ft | 331 kts | 133° |
| 2026-05-06 13:22 | 39.19990 | 20.33506 | 12631 ft | 330 kts | 130° |
| 2026-05-06 13:22 | 39.18539 | 20.35805 | 12277 ft | 330 kts | 130° |
| 2026-05-06 13:22 | 39.17090 | 20.38100 | 11944 ft | 330 kts | 130° |
| 2026-05-06 13:22 | 39.15637 | 20.40385 | 11609 ft | 329 kts | 131° |
| 2026-05-06 13:23 | 39.14186 | 20.42655 | 11280 ft | 329 kts | 131° |
| 2026-05-06 13:23 | 39.12726 | 20.44938 | 10947 ft | 328 kts | 131° |
| 2026-05-06 13:23 | 39.11291 | 20.47171 | 10623 ft | 326 kts | 131° |
| 2026-05-06 13:23 | 39.09857 | 20.49409 | 10302 ft | 322 kts | 130° |
| 2026-05-06 13:24 | 39.08450 | 20.51602 | 10094 ft | 313 kts | 130° |
| 2026-05-06 13:24 | 39.07077 | 20.53740 | 9814 ft | 307 kts | 130° |
| 2026-05-06 13:24 | 39.05725 | 20.55843 | 9443 ft | 304 kts | 130° |
| 2026-05-06 13:24 | 39.04383 | 20.57932 | 9085 ft | 301 kts | 130° |
| 2026-05-06 13:25 | 39.03045 | 20.60006 | 8761 ft | 302 kts | 130° |
| 2026-05-06 13:25 | 39.01697 | 20.62095 | 8569 ft | 303 kts | 131° |
| 2026-05-06 13:25 | 39.00346 | 20.64186 | 8399 ft | 304 kts | 130° |
| 2026-05-06 13:25 | 38.99002 | 20.66269 | 8289 ft | 307 kts | 130° |
| 2026-05-06 13:26 | 38.97633 | 20.68392 | 8168 ft | 310 kts | 130° |
| 2026-05-06 13:26 | 38.96240 | 20.70548 | 8043 ft | 313 kts | 130° |
| 2026-05-06 13:26 | 38.94896 | 20.72762 | 7893 ft | 315 kts | 120° |
| 2026-05-06 13:26 | 38.94248 | 20.75407 | 7708 ft | 309 kts | 92° |
| 2026-05-06 13:27 | 38.94613 | 20.78054 | 7520 ft | 297 kts | 63° |
| 2026-05-06 13:27 | 38.95824 | 20.80058 | 7368 ft | 282 kts | 39° |
| 2026-05-06 13:27 | 38.97349 | 20.81549 | 7250 ft | 270 kts | 33° |
| 2026-05-06 13:27 | 38.98837 | 20.82937 | 7109 ft | 259 kts | 34° |
| 2026-05-06 13:28 | 39.00243 | 20.84300 | 6994 ft | 248 kts | 36° |
| 2026-05-06 13:28 | 39.01576 | 20.85630 | 6850 ft | 237 kts | 36° |
| 2026-05-06 13:28 | 39.02851 | 20.86921 | 6656 ft | 228 kts | 36° |
| 2026-05-06 13:28 | 39.04073 | 20.88171 | 6432 ft | 219 kts | 37° |
| 2026-05-06 13:29 | 39.05235 | 20.89363 | 6231 ft | 208 kts | 37° |
| 2026-05-06 13:29 | 39.06322 | 20.90506 | 5935 ft | 200 kts | 40° |
| 2026-05-06 13:29 | 39.07069 | 20.92002 | 5557 ft | 200 kts | 75° |
| 2026-05-06 13:29 | 39.07003 | 20.93743 | 5184 ft | 199 kts | 111° |
| 2026-05-06 13:30 | 39.06224 | 20.95166 | 4824 ft | 195 kts | 138° |
| 2026-05-06 13:30 | 39.05180 | 20.96279 | 4488 ft | 194 kts | 143° |
| 2026-05-06 13:30 | 39.04099 | 20.97298 | 4162 ft | 192 kts | 147° |
| 2026-05-06 13:30 | 39.02979 | 20.98221 | 3823 ft | 191 kts | 151° |
| 2026-05-06 13:31 | 39.01820 | 20.99048 | 3485 ft | 190 kts | 155° |
| 2026-05-06 13:31 | 39.00580 | 20.99525 | 3131 ft | 184 kts | 186° |
| 2026-05-06 13:31 | 38.99477 | 20.98826 | 2856 ft | 181 kts | 232° |
| 2026-05-06 13:31 | 38.98991 | 20.97352 | 2589 ft | 180 kts | 254° |
| 2026-05-06 13:32 | 38.98607 | 20.95827 | 2344 ft | 179 kts | 251° |
| 2026-05-06 13:32 | 38.98167 | 20.94306 | 2322 ft | 182 kts | 250° |
| 2026-05-06 13:32 | 38.97707 | 20.92778 | 2336 ft | 184 kts | 250° |
| 2026-05-06 13:32 | 38.97241 | 20.91259 | 2375 ft | 184 kts | 249° |
| 2026-05-06 13:33 | 38.96766 | 20.89721 | 2334 ft | 185 kts | 249° |
| 2026-05-06 13:33 | 38.96299 | 20.88206 | 2050 ft | 179 kts | 249° |
| 2026-05-06 13:33 | 38.95850 | 20.86755 | 1729 ft | 171 kts | 249° |
| 2026-05-06 13:33 | 38.95433 | 20.85398 | 1462 ft | 155 kts | 250° |
| 2026-05-06 13:34 | 38.95062 | 20.84207 | 1140 ft | 135 kts | 249° |
| 2026-05-06 13:34 | 38.94704 | 20.83099 | 820 ft | 131 kts | 249° |
| 2026-05-06 13:34 | 38.94365 | 20.82002 | 634 ft | 136 kts | 249° |
| 2026-05-06 13:34 | 38.93984 | 20.80893 | 470 ft | 137 kts | 249° |
| 2026-05-06 13:35 | 38.93600 | 20.79769 | 365 ft | 137 kts | 248° |
| 2026-05-06 13:35 | 38.93231 | 20.78644 | 167 ft | 137 kts | 249° |
| 2026-05-06 13:35 | 38.92879 | 20.77519 | 28 ft | 132 kts | 249° |
| 2026-05-06 13:35 | 38.92582 | 20.76570 | 27 ft | 86 kts | 248° |
| 2026-05-06 13:36 | 38.92424 | 20.76069 | 21 ft | 49 kts | 248° |
| 2026-05-06 13:36 | 38.92298 | 20.75667 | 27 ft | 41 kts | 248° |
| 2026-05-06 13:36 | 38.92219 | 20.75421 | 26 ft | 13 kts | 248° |
| 2026-05-06 13:36 | 38.92163 | 20.75391 | 26 ft | 10 kts | 162° |
| 2026-05-06 13:37 | 38.92096 | 20.75434 | 25 ft | 12 kts | 124° |
| 2026-05-06 13:37 | 38.92111 | 20.75536 | 23 ft | 13 kts | 67° |
| 2026-05-06 13:37 | 38.92147 | 20.75652 | 24 ft | 15 kts | 68° |
| 2026-05-06 13:37 | 38.92188 | 20.75781 | 22 ft | 16 kts | 68° |
| 2026-05-06 13:38 | 38.92231 | 20.75918 | 20 ft | 17 kts | 68° |
| 2026-05-06 13:38 | 38.92277 | 20.76066 | 20 ft | 18 kts | 68° |
| 2026-05-06 13:38 | 38.92327 | 20.76223 | 17 ft | 19 kts | 68° |
| 2026-05-06 13:38 | 38.92380 | 20.76389 | 19 ft | 21 kts | 68° |
| 2026-05-06 13:39 | 38.92436 | 20.76567 | 18 ft | 22 kts | 68° |
| 2026-05-06 13:39 | 38.92494 | 20.76755 | 21 ft | 24 kts | 69° |
| 2026-05-06 13:39 | 38.92557 | 20.76955 | 20 ft | 25 kts | 67° |
| 2026-05-06 13:39 | 38.92615 | 20.77137 | 18 ft | 13 kts | 69° |
| 2026-05-06 13:40 | 38.92692 | 20.77154 | 19 ft | 15 kts | 334° |
| 2026-05-06 13:40 | 38.92777 | 20.77185 | 19 ft | 16 kts | 69° |
| 2026-05-06 13:40 | 38.92843 | 20.77231 | 20 ft | 12 kts | 337° |
| 2026-05-06 13:40 | 38.92924 | 20.77199 | 20 ft | 10 kts | 40° |
| 2026-05-06 13:41 | 38.92939 | 20.77259 | 19 ft | 8 kts | 72° |
| 2026-05-06 13:41 | 38.92959 | 20.77330 | 20 ft | 9 kts | 69° |
| 2026-05-06 13:41 | 38.92988 | 20.77365 | 19 ft | 7 kts | 352° |
| 2026-05-06 13:41 | 38.93036 | 20.77338 | 19 ft | 4 kts | 338° |
| 2026-05-06 13:42 | 38.93047 | 20.77333 | 21 ft | 0 kts | 338° |